Time;durP1;ratioP1;P1;durP2;ratioP2;P2;SDS_P1;SDS_P2;PMS_P1;PMS_P2;Temp;Humidity;BMP_temperature;BMP_pressure;BME280_temperature;BME280_humidity;BME280_pressure;Samples;Min_cycle;Max_cycle;Signal;HPM_P1;HPM_P2
2022/11/14 00:01:33;;;;;;;23.90;12.83;;;1.60;99.90;;;;;;4112130;28;20931;-74
2022/11/14 00:03:35;;;;;;;23.43;13.00;;;1.60;99.90;;;;;;4114551;28;20803;-74
2022/11/14 00:05:40;;;;;;;25.30;13.63;;;1.50;99.90;;;;;;4110199;28;20463;-74
2022/11/14 00:07:41;;;;;;;27.10;14.23;;;1.50;99.90;;;;;;4112309;28;20502;-74
2022/11/14 00:09:45;;;;;;;24.70;13.50;;;1.50;99.90;;;;;;4107935;28;20480;-74
2022/11/14 00:11:47;;;;;;;22.77;12.50;;;1.50;99.90;;;;;;4106725;28;20470;-74
2022/11/14 00:13:51;;;;;;;25.17;13.80;;;1.50;99.90;;;;;;4108172;28;20467;-74
2022/11/14 00:15:53;;;;;;;24.40;13.27;;;1.40;99.90;;;;;;4108459;28;20509;-74
2022/11/14 00:17:55;;;;;;;23.23;12.80;;;1.40;99.90;;;;;;4109265;28;20497;-75
2022/11/14 00:19:57;;;;;;;23.83;13.57;;;1.40;99.90;;;;;;4110564;28;21117;-74
2022/11/14 00:22:00;;;;;;;27.07;13.80;;;1.40;99.90;;;;;;4116090;28;20478;-74
2022/11/14 00:24:02;;;;;;;24.83;14.00;;;1.30;99.90;;;;;;4115331;28;20492;-75
2022/11/14 00:26:05;;;;;;;25.30;13.17;;;1.30;99.90;;;;;;4107506;28;20926;-75
2022/11/14 00:28:07;;;;;;;27.03;13.20;;;1.30;99.90;;;;;;4108596;28;20486;-74
2022/11/14 00:30:09;;;;;;;24.30;12.67;;;1.30;99.90;;;;;;4112797;28;20570;-74
2022/11/14 00:32:11;;;;;;;24.80;12.57;;;1.30;99.90;;;;;;4109334;28;20461;-74
2022/11/14 00:34:13;;;;;;;24.43;12.70;;;1.20;99.90;;;;;;4108766;28;20489;-75
2022/11/14 00:36:15;;;;;;;25.47;13.00;;;1.20;99.90;;;;;;4109000;28;20475;-75
2022/11/14 00:38:17;;;;;;;23.30;12.27;;;1.20;99.90;;;;;;4110705;28;21007;-74
2022/11/14 00:40:19;;;;;;;23.27;12.43;;;1.10;99.90;;;;;;4112465;28;20542;-75
2022/11/14 00:42:22;;;;;;;22.43;11.63;;;1.10;99.90;;;;;;4112035;28;20469;-75
2022/11/14 00:44:24;;;;;;;23.53;12.30;;;1.10;99.90;;;;;;4105360;28;20491;-74
2022/11/14 00:46:26;;;;;;;26.73;13.10;;;1.10;99.90;;;;;;4106791;28;20464;-75
2022/11/14 00:48:28;;;;;;;24.17;12.90;;;1.10;99.90;;;;;;4103758;28;20919;-74
2022/11/14 00:50:30;;;;;;;25.70;13.40;;;1.10;99.90;;;;;;4101025;28;20469;-74
2022/11/14 00:52:32;;;;;;;24.87;13.27;;;1.10;99.90;;;;;;4109879;28;20460;-74
2022/11/14 00:54:34;;;;;;;25.27;13.53;;;1.10;99.90;;;;;;4109195;28;20466;-74
2022/11/14 00:56:36;;;;;;;23.50;12.60;;;1.00;99.90;;;;;;4114387;28;20877;-74
2022/11/14 00:58:39;;;;;;;23.63;13.40;;;1.00;99.90;;;;;;4112083;28;20580;-74
2022/11/14 01:00:41;;;;;;;25.60;13.53;;;1.00;99.90;;;;;;4110118;28;20946;-74
2022/11/14 01:02:43;;;;;;;23.83;12.20;;;1.00;99.90;;;;;;4111064;28;20997;-75
2022/11/14 01:04:45;;;;;;;22.10;11.73;;;1.00;99.90;;;;;;4115195;28;20950;-75
2022/11/14 01:06:47;;;;;;;21.00;12.07;;;0.90;99.90;;;;;;4112205;28;20513;-74
2022/11/14 01:08:50;;;;;;;21.20;12.00;;;0.90;99.90;;;;;;4112812;28;20483;-74
2022/11/14 01:10:52;;;;;;;22.77;12.03;;;0.90;99.90;;;;;;4109085;28;20492;-74
2022/11/14 01:12:54;;;;;;;22.23;12.23;;;0.90;99.90;;;;;;4112886;28;20999;-74
2022/11/14 01:14:58;;;;;;;22.73;12.07;;;0.80;99.90;;;;;;4121044;28;20562;-74
2022/11/14 01:16:59;;;;;;;23.00;12.17;;;0.80;99.90;;;;;;4115559;28;20472;-75
2022/11/14 01:19:02;;;;;;;20.37;11.27;;;0.80;99.90;;;;;;4116411;28;20483;-74
2022/11/14 01:21:05;;;;;;;21.00;11.43;;;0.80;99.90;;;;;;4115214;28;20505;-75
2022/11/14 01:23:08;;;;;;;20.40;10.87;;;0.80;99.90;;;;;;4112254;28;20985;-75
2022/11/14 01:25:10;;;;;;;22.97;11.63;;;0.70;99.90;;;;;;4110879;28;20509;-75
2022/11/14 01:27:12;;;;;;;21.37;11.80;;;0.70;99.90;;;;;;4110323;28;20456;-74
2022/11/14 01:29:14;;;;;;;20.13;11.03;;;0.70;99.90;;;;;;4109608;28;20494;-75
2022/11/14 01:31:19;;;;;;;22.17;11.20;;;0.70;99.90;;;;;;4109911;28;20571;-75
2022/11/14 01:33:21;;;;;;;25.13;12.90;;;0.70;99.90;;;;;;4111980;28;20836;-75
2022/11/14 01:35:23;;;;;;;21.33;11.27;;;0.70;99.90;;;;;;4111041;28;20506;-74
2022/11/14 01:37:25;;;;;;;23.67;12.43;;;0.70;99.90;;;;;;4109196;28;20880;-74
2022/11/14 01:39:27;;;;;;;27.00;13.30;;;0.80;99.90;;;;;;4107752;28;20589;-74
2022/11/14 01:41:29;;;;;;;26.87;13.20;;;0.80;99.90;;;;;;4111765;28;20718;-74
2022/11/14 01:43:33;;;;;;;25.17;12.87;;;0.70;99.90;;;;;;4115000;28;20868;-75
2022/11/14 01:45:50;;;;;;;29.13;13.47;;;0.70;99.90;;;;;;4113325;28;20457;-74
2022/11/14 01:47:53;;;;;;;28.17;13.57;;;0.70;99.90;;;;;;4110560;28;20542;-75
2022/11/14 01:49:58;;;;;;;29.50;13.83;;;0.70;99.90;;;;;;4110858;28;20550;-74
2022/11/14 01:52:05;;;;;;;31.20;14.60;;;0.80;99.90;;;;;;4111272;28;20790;-75
2022/11/14 01:54:10;;;;;;;31.37;14.43;;;0.80;99.90;;;;;;4112746;28;20463;-74
2022/11/14 01:56:17;;;;;;;33.90;15.10;;;0.90;99.90;;;;;;4109769;28;20486;-74
2022/11/14 01:58:20;;;;;;;33.27;14.70;;;0.90;99.90;;;;;;4154391;23;20473;-76
2022/11/14 02:00:22;;;;;;;28.73;13.80;;;0.90;99.90;;;;;;4105038;28;20465;-77
2022/11/14 02:02:25;;;;;;;28.03;13.30;;;1.00;99.90;;;;;;4109084;28;20467;-76
2022/11/14 02:04:33;;;;;;;31.67;15.07;;;1.00;99.90;;;;;;4105270;28;21167;-76
2022/11/14 02:06:36;;;;;;;32.17;13.90;;;1.00;99.90;;;;;;4106509;28;20908;-76
2022/11/14 02:08:38;;;;;;;35.90;15.23;;;1.00;99.90;;;;;;4099515;28;20507;-77
2022/11/14 02:10:40;;;;;;;30.93;14.60;;;1.10;99.90;;;;;;4095510;29;20456;-76
2022/11/14 02:12:43;;;;;;;33.87;15.50;;;1.10;99.90;;;;;;4096068;28;20506;-76
2022/11/14 02:14:47;;;;;;;31.03;14.70;;;1.10;99.90;;;;;;4095643;29;21053;-76
2022/11/14 02:16:50;;;;;;;32.33;14.67;;;1.10;99.90;;;;;;4094253;29;20904;-77
2022/11/14 02:18:52;;;;;;;33.07;14.23;;;1.20;99.90;;;;;;4095710;28;20519;-76
2022/11/14 02:20:55;;;;;;;31.43;14.23;;;1.20;99.90;;;;;;4088303;28;20584;-75
2022/11/14 02:22:57;;;;;;;31.23;14.33;;;1.20;99.90;;;;;;4099072;28;20493;-75
2022/11/14 02:24:59;;;;;;;26.80;13.03;;;1.20;99.90;;;;;;4098474;28;20537;-76
2022/11/14 02:27:01;;;;;;;32.93;14.43;;;1.20;99.90;;;;;;4098228;28;20464;-75
2022/11/14 02:29:03;;;;;;;29.03;13.80;;;1.20;99.90;;;;;;4097444;29;20504;-76
2022/11/14 02:31:05;;;;;;;27.60;13.47;;;1.20;99.90;;;;;;4099004;29;20895;-76
2022/11/14 02:33:07;;;;;;;28.10;13.43;;;1.30;99.90;;;;;;4096554;29;20548;-75
2022/11/14 02:35:09;;;;;;;27.80;13.77;;;1.30;99.90;;;;;;4097817;28;20705;-75
2022/11/14 02:37:13;;;;;;;28.80;13.10;;;1.30;99.90;;;;;;4097453;29;20463;-75
2022/11/14 02:39:15;;;;;;;27.60;12.70;;;1.30;99.90;;;;;;4099111;28;20916;-75
2022/11/14 02:41:16;;;;;;;29.37;13.93;;;1.30;99.90;;;;;;4100108;28;20471;-76
2022/11/14 02:43:18;;;;;;;31.70;14.10;;;1.20;99.90;;;;;;4096253;28;20558;-76
2022/11/14 02:45:20;;;;;;;28.23;14.60;;;1.30;99.90;;;;;;4099315;28;20990;-76
2022/11/14 02:47:23;;;;;;;29.13;13.13;;;1.30;99.90;;;;;;4098219;28;20652;-76
2022/11/14 02:49:25;;;;;;;34.00;15.27;;;1.40;99.90;;;;;;4098517;29;20482;-75
2022/11/14 02:51:27;;;;;;;30.57;14.10;;;1.40;99.90;;;;;;4099209;29;20459;-76
2022/11/14 02:53:30;;;;;;;30.57;13.90;;;1.40;99.90;;;;;;4098648;28;20510;-76
2022/11/14 02:55:32;;;;;;;29.87;14.07;;;1.50;99.90;;;;;;4098352;29;21038;-76
2022/11/14 02:57:34;;;;;;;26.80;13.97;;;1.40;99.90;;;;;;4098934;29;20464;-76
2022/11/14 02:59:36;;;;;;;30.23;13.40;;;1.50;99.90;;;;;;4098588;28;21038;-75
2022/11/14 03:01:38;;;;;;;28.53;13.67;;;1.50;99.90;;;;;;4089150;28;20506;-76
2022/11/14 03:03:40;;;;;;;29.57;13.23;;;1.50;99.90;;;;;;4096424;29;20488;-76
2022/11/14 03:05:41;;;;;;;28.80;13.93;;;1.50;99.90;;;;;;4099337;29;20952;-76
2022/11/14 03:07:43;;;;;;;25.40;12.73;;;1.50;99.90;;;;;;4098907;29;20455;-76
2022/11/14 03:09:47;;;;;;;26.73;13.23;;;1.50;99.90;;;;;;4097505;28;20511;-75
2022/11/14 03:11:48;;;;;;;25.83;12.53;;;1.40;99.90;;;;;;4097320;29;20459;-76
2022/11/14 03:13:50;;;;;;;27.03;12.53;;;1.40;99.90;;;;;;4098250;29;20494;-75
2022/11/14 03:15:52;;;;;;;23.80;12.37;;;1.40;99.90;;;;;;4098615;28;20464;-76
2022/11/14 03:17:54;;;;;;;26.17;12.73;;;1.40;99.90;;;;;;4097953;29;20460;-76
2022/11/14 03:19:56;;;;;;;24.77;11.87;;;1.40;99.90;;;;;;4098251;28;20899;-76
2022/11/14 03:22:00;;;;;;;26.50;12.63;;;1.40;99.90;;;;;;4090569;29;20500;-76
2022/11/14 03:24:02;;;;;;;28.83;14.40;;;1.40;99.90;;;;;;4097236;29;20587;-76
2022/11/14 03:26:07;;;;;;;28.43;14.47;;;1.40;99.90;;;;;;4098261;29;20503;-76
2022/11/14 03:28:09;;;;;;;26.20;13.27;;;1.40;99.90;;;;;;4098737;29;20464;-76
2022/11/14 03:30:12;;;;;;;26.17;12.60;;;1.30;99.90;;;;;;4098550;29;20558;-75
2022/11/14 03:32:14;;;;;;;22.87;12.57;;;1.20;99.90;;;;;;4098660;28;20499;-76
2022/11/14 03:34:15;;;;;;;24.07;11.80;;;1.30;99.90;;;;;;4096725;28;20460;-76
2022/11/14 03:36:17;;;;;;;25.63;13.53;;;1.20;99.90;;;;;;4098498;28;20490;-76
2022/11/14 03:38:21;;;;;;;27.40;12.57;;;1.10;99.90;;;;;;4097831;28;20565;-76
2022/11/14 03:40:23;;;;;;;22.60;12.10;;;1.20;99.90;;;;;;4096835;28;20474;-76
2022/11/14 03:42:27;;;;;;;22.93;12.00;;;1.10;99.90;;;;;;4098023;28;20468;-77
2022/11/14 03:44:28;;;;;;;24.37;12.00;;;1.10;99.90;;;;;;4098417;28;20578;-77
2022/11/14 03:46:30;;;;;;;22.17;11.37;;;1.10;99.90;;;;;;4099459;28;20852;-75
2022/11/14 03:48:32;;;;;;;21.70;10.93;;;1.10;99.90;;;;;;4097837;29;20572;-74
2022/11/14 03:50:34;;;;;;;25.87;12.63;;;1.00;99.90;;;;;;4098212;29;20503;-74
2022/11/14 03:52:36;;;;;;;24.40;12.70;;;1.00;99.90;;;;;;4097009;28;21049;-74
2022/11/14 03:54:38;;;;;;;24.77;12.60;;;1.00;99.90;;;;;;4098407;29;20487;-74
2022/11/14 03:56:40;;;;;;;26.80;13.10;;;1.20;99.90;;;;;;4095055;29;20491;-74
2022/11/14 03:58:43;;;;;;;28.47;13.00;;;1.10;99.90;;;;;;4093526;28;20484;-74
2022/11/14 04:00:45;;;;;;;26.73;13.20;;;1.10;99.90;;;;;;4097201;28;20488;-74
2022/11/14 04:02:47;;;;;;;28.20;12.93;;;1.10;99.90;;;;;;4096687;29;20464;-74
2022/11/14 04:04:49;;;;;;;26.03;13.13;;;1.10;99.90;;;;;;4097510;28;20489;-74
2022/11/14 04:06:51;;;;;;;25.60;12.70;;;1.20;99.90;;;;;;4096075;29;20903;-74
2022/11/14 04:08:55;;;;;;;23.10;12.43;;;1.20;99.90;;;;;;4097120;28;20521;-74
2022/11/14 04:10:57;;;;;;;28.63;12.90;;;1.20;99.90;;;;;;4097759;29;20461;-74
2022/11/14 04:12:59;;;;;;;25.70;12.53;;;1.20;99.90;;;;;;4097814;28;20852;-74
2022/11/14 04:15:02;;;;;;;24.70;12.10;;;1.20;99.90;;;;;;4097927;29;20506;-74
2022/11/14 04:17:04;;;;;;;23.93;12.07;;;1.20;99.90;;;;;;4096366;28;20474;-74
2022/11/14 04:19:06;;;;;;;26.27;12.50;;;1.20;99.90;;;;;;4097717;28;20514;-74
2022/11/14 04:21:08;;;;;;;28.03;13.30;;;1.20;99.90;;;;;;4094760;29;20538;-74
2022/11/14 04:23:10;;;;;;;28.27;12.37;;;1.20;99.90;;;;;;4097685;28;20539;-74
2022/11/14 04:25:12;;;;;;;24.90;12.90;;;1.20;99.90;;;;;;4097798;29;20538;-74
2022/11/14 04:27:14;;;;;;;22.53;11.63;;;1.20;99.90;;;;;;4096130;29;20576;-74
2022/11/14 04:29:15;;;;;;;24.77;12.67;;;1.20;99.90;;;;;;4090537;29;20527;-74
2022/11/14 04:31:19;;;;;;;25.13;11.57;;;1.20;99.90;;;;;;4097601;28;20559;-74
2022/11/14 04:33:20;;;;;;;25.13;12.03;;;1.20;99.90;;;;;;4097081;28;20502;-74
2022/11/14 04:35:22;;;;;;;23.83;12.00;;;1.20;99.90;;;;;;4097799;28;20481;-74
2022/11/14 04:37:24;;;;;;;26.10;12.17;;;1.20;99.90;;;;;;4097693;29;20680;-74
2022/11/14 04:39:26;;;;;;;21.97;11.53;;;1.10;99.90;;;;;;4086980;28;20571;-74
2022/11/14 04:41:28;;;;;;;23.93;12.00;;;1.10;99.90;;;;;;4096966;28;20507;-74
2022/11/14 04:43:31;;;;;;;21.67;11.47;;;1.10;99.90;;;;;;4096994;28;20500;-74
2022/11/14 04:45:33;;;;;;;22.20;10.70;;;1.10;99.90;;;;;;4095307;28;20598;-74
2022/11/14 04:47:37;;;;;;;22.00;11.13;;;1.10;99.90;;;;;;4097379;28;20498;-74
2022/11/14 04:49:39;;;;;;;21.13;11.37;;;1.10;99.90;;;;;;4096956;28;20922;-75
2022/11/14 04:51:40;;;;;;;20.63;10.70;;;1.00;99.90;;;;;;4096240;28;20462;-73
2022/11/14 04:53:42;;;;;;;20.47;10.23;;;1.00;99.90;;;;;;4096389;29;20500;-74
2022/11/14 04:55:45;;;;;;;17.93;10.13;;;1.00;99.90;;;;;;4097526;28;20459;-74
2022/11/14 04:57:47;;;;;;;19.83;11.00;;;1.00;99.90;;;;;;4093128;29;20480;-74
2022/11/14 04:59:49;;;;;;;23.90;11.87;;;1.00;99.90;;;;;;4095681;28;21013;-74
2022/11/14 05:01:51;;;;;;;29.37;13.13;;;1.00;99.90;;;;;;4095011;29;21058;-74
2022/11/14 05:03:54;;;;;;;27.17;13.30;;;1.00;99.90;;;;;;4096450;29;20467;-74
2022/11/14 05:06:00;;;;;;;26.60;12.40;;;1.00;99.90;;;;;;4095738;28;20488;-75
2022/11/14 05:08:05;;;;;;;28.07;13.73;;;1.00;99.90;;;;;;4097105;28;20905;-74
2022/11/14 05:10:08;;;;;;;25.40;12.53;;;1.00;99.90;;;;;;4094662;29;20468;-74
2022/11/14 05:12:10;;;;;;;28.60;13.30;;;1.10;99.90;;;;;;4096056;28;20840;-74
2022/11/14 05:14:12;;;;;;;24.70;11.97;;;1.10;99.90;;;;;;4095701;28;20468;-74
2022/11/14 05:16:14;;;;;;;22.53;11.80;;;1.10;99.90;;;;;;4096501;29;20510;-74
2022/11/14 05:18:15;;;;;;;21.07;11.30;;;1.00;99.90;;;;;;4094558;28;20466;-74
2022/11/14 05:20:19;;;;;;;23.07;11.40;;;1.00;99.90;;;;;;4088521;28;21108;-74
2022/11/14 05:22:21;;;;;;;19.97;10.73;;;1.10;99.90;;;;;;4095355;29;20908;-74
2022/11/14 05:24:23;;;;;;;19.97;10.97;;;1.10;99.90;;;;;;4094265;28;20591;-74
2022/11/14 05:26:25;;;;;;;21.40;11.40;;;1.00;99.90;;;;;;4093421;28;20466;-74
2022/11/14 05:28:27;;;;;;;21.63;11.93;;;1.00;99.90;;;;;;4096307;28;20474;-74
2022/11/14 05:30:29;;;;;;;25.57;12.67;;;0.90;99.90;;;;;;4093373;28;20492;-74
2022/11/14 05:32:30;;;;;;;23.10;12.47;;;1.00;99.90;;;;;;4094999;28;20550;-73
2022/11/14 05:34:33;;;;;;;27.73;13.33;;;0.90;99.90;;;;;;4096770;28;20492;-73
2022/11/14 05:36:36;;;;;;;22.13;11.97;;;0.90;99.90;;;;;;4110019;28;20459;-74
2022/11/14 05:38:38;;;;;;;22.73;11.13;;;0.90;99.90;;;;;;4096948;28;20476;-74
2022/11/14 05:40:40;;;;;;;19.73;11.17;;;0.90;99.90;;;;;;4095104;28;20470;-75
2022/11/14 05:42:42;;;;;;;22.53;11.70;;;0.90;99.90;;;;;;4094208;28;20464;-75
2022/11/14 05:44:43;;;;;;;20.13;10.73;;;0.80;99.90;;;;;;4094476;28;20517;-75
2022/11/14 05:46:45;;;;;;;21.70;11.30;;;0.80;99.90;;;;;;4095402;28;20511;-74
2022/11/14 05:48:47;;;;;;;20.33;10.90;;;0.80;99.90;;;;;;4091749;28;21069;-74
2022/11/14 05:50:53;;;;;;;23.37;11.63;;;0.80;99.90;;;;;;4089319;29;20467;-75
2022/11/14 05:52:57;;;;;;;21.50;11.40;;;0.80;99.90;;;;;;4095299;29;20554;-75
2022/11/14 05:54:59;;;;;;;21.13;10.77;;;0.70;99.90;;;;;;4091924;28;20463;-74
2022/11/14 05:57:01;;;;;;;23.20;11.60;;;0.70;99.90;;;;;;4094934;28;20468;-74
2022/11/14 05:59:03;;;;;;;20.33;10.73;;;0.70;99.90;;;;;;4087751;29;20514;-75
2022/11/14 06:01:07;;;;;;;21.77;11.00;;;0.70;99.90;;;;;;4095385;28;20462;-75
2022/11/14 06:03:09;;;;;;;24.60;13.00;;;0.70;99.90;;;;;;4095041;29;20492;-77
2022/11/14 06:05:11;;;;;;;33.67;15.93;;;0.60;99.90;;;;;;4093650;28;20704;-75
2022/11/14 06:07:13;;;;;;;36.77;15.73;;;0.70;99.90;;;;;;4096045;28;20894;-76
2022/11/14 06:09:16;;;;;;;30.23;14.77;;;0.60;99.90;;;;;;4093521;29;20481;-74
2022/11/14 06:11:21;;;;;;;26.90;13.40;;;0.60;99.90;;;;;;4096150;29;20510;-74
2022/11/14 06:13:23;;;;;;;23.03;12.73;;;0.60;99.90;;;;;;4094562;28;20457;-71
2022/11/14 06:15:25;;;;;;;26.90;12.93;;;0.60;99.90;;;;;;4087619;28;20638;-75
2022/11/14 06:17:27;;;;;;;26.70;13.77;;;0.60;99.90;;;;;;4092729;29;20522;-74
2022/11/14 06:19:29;;;;;;;26.50;12.80;;;0.60;99.90;;;;;;4095753;28;20904;-76
2022/11/14 06:21:31;;;;;;;30.50;14.50;;;0.60;99.90;;;;;;4094926;28;20518;-74
2022/11/14 06:23:33;;;;;;;27.67;14.27;;;0.60;99.90;;;;;;4096092;29;20498;-75
2022/11/14 06:25:36;;;;;;;30.93;14.93;;;0.60;99.90;;;;;;4089099;29;20495;-75
2022/11/14 06:27:38;;;;;;;29.73;15.47;;;0.60;99.90;;;;;;4096017;28;20464;-74
2022/11/14 06:29:40;;;;;;;26.93;14.70;;;0.60;99.90;;;;;;4095968;28;20986;-74
2022/11/14 06:31:42;;;;;;;28.40;14.27;;;0.60;99.90;;;;;;4095712;28;20485;-74
2022/11/14 06:33:44;;;;;;;26.80;13.50;;;0.50;99.90;;;;;;4093285;28;20498;-74
2022/11/14 06:35:46;;;;;;;24.80;12.40;;;0.50;99.90;;;;;;4095044;29;20468;-75
2022/11/14 06:37:47;;;;;;;25.30;12.83;;;0.50;99.90;;;;;;4089465;28;20460;-75
2022/11/14 06:39:49;;;;;;;23.57;12.77;;;0.50;99.90;;;;;;4095017;29;20578;-75
2022/11/14 06:41:53;;;;;;;23.43;12.23;;;0.50;99.90;;;;;;4096010;28;21159;-74
2022/11/14 06:43:55;;;;;;;23.87;12.73;;;0.50;99.90;;;;;;4088275;28;20512;-75
2022/11/14 06:45:57;;;;;;;25.67;13.93;;;0.50;99.90;;;;;;4094538;28;21077;-74
2022/11/14 06:47:59;;;;;;;24.53;12.30;;;0.50;99.90;;;;;;4086363;29;20519;-74
2022/11/14 06:50:01;;;;;;;23.67;12.90;;;0.40;99.90;;;;;;4090819;29;20567;-75
2022/11/14 06:52:03;;;;;;;23.87;12.43;;;0.50;99.90;;;;;;4094229;28;21206;-73
2022/11/14 06:54:05;;;;;;;24.10;13.20;;;0.50;99.90;;;;;;4095246;28;20941;-74
2022/11/14 06:56:11;;;;;;;25.43;13.33;;;0.60;99.90;;;;;;4095009;28;20541;-74
2022/11/14 06:58:14;;;;;;;26.23;13.47;;;0.50;99.90;;;;;;4093710;29;20498;-73
2022/11/14 07:00:17;;;;;;;27.17;13.00;;;0.60;99.90;;;;;;4095670;29;20898;-74
2022/11/14 07:02:19;;;;;;;25.87;12.63;;;0.50;99.90;;;;;;4095594;29;20524;-74
2022/11/14 07:04:20;;;;;;;26.60;13.83;;;0.40;99.90;;;;;;4084763;29;20489;-74
2022/11/14 07:06:25;;;;;;;27.77;14.63;;;0.50;99.90;;;;;;4094966;29;20577;-74
2022/11/14 07:08:27;;;;;;;26.20;14.27;;;0.50;99.90;;;;;;4097015;28;20491;-74
2022/11/14 07:10:29;;;;;;;25.50;14.10;;;0.50;99.90;;;;;;4097297;29;20502;-74
2022/11/14 07:12:31;;;;;;;26.27;13.80;;;0.50;99.90;;;;;;4089136;29;20506;-74
2022/11/14 07:14:34;;;;;;;29.13;14.60;;;0.40;99.90;;;;;;4097226;29;20557;-74
2022/11/14 07:16:36;;;;;;;26.03;13.43;;;0.40;99.90;;;;;;4098445;28;20924;-75
2022/11/14 07:18:38;;;;;;;28.03;14.57;;;0.40;99.90;;;;;;4096790;28;20575;-74
2022/11/14 07:20:40;;;;;;;27.73;13.47;;;0.40;99.90;;;;;;4086985;29;20546;-74
2022/11/14 07:22:42;;;;;;;26.83;13.70;;;0.40;99.90;;;;;;4098567;28;20561;-73
2022/11/14 07:24:44;;;;;;;23.70;13.13;;;0.50;99.90;;;;;;4097537;29;20482;-75
2022/11/14 07:26:46;;;;;;;27.93;14.07;;;0.40;99.90;;;;;;4095908;28;20554;-73
2022/11/14 07:28:48;;;;;;;29.43;15.07;;;0.50;99.90;;;;;;4096540;29;20482;-74
2022/11/14 07:30:51;;;;;;;27.57;14.43;;;0.50;99.90;;;;;;4092370;28;20464;-74
2022/11/14 07:32:57;;;;;;;24.87;12.77;;;0.50;99.90;;;;;;4097904;28;20945;-74
2022/11/14 07:34:59;;;;;;;27.57;13.33;;;0.50;99.90;;;;;;4098286;29;20502;-74
2022/11/14 07:37:00;;;;;;;27.33;13.63;;;0.50;99.90;;;;;;4098665;28;20479;-74
2022/11/14 07:39:02;;;;;;;25.33;12.70;;;0.50;99.90;;;;;;4097788;29;20479;-74
2022/11/14 07:41:07;;;;;;;26.13;13.37;;;0.50;99.90;;;;;;4098070;28;20473;-74
2022/11/14 07:43:09;;;;;;;24.67;12.63;;;0.50;99.90;;;;;;4098302;28;20489;-74
2022/11/14 07:45:12;;;;;;;22.83;12.40;;;0.50;99.90;;;;;;4098094;29;20551;-74
2022/11/14 07:47:16;;;;;;;24.17;12.73;;;0.60;99.90;;;;;;4099139;28;20462;-74
2022/11/14 07:49:17;;;;;;;29.30;14.03;;;0.70;99.90;;;;;;4097528;29;20552;-74
2022/11/14 07:51:20;;;;;;;25.43;12.63;;;0.60;99.90;;;;;;4098528;28;20924;-74
2022/11/14 07:53:23;;;;;;;25.60;12.60;;;0.60;99.90;;;;;;4098080;28;20556;-74
2022/11/14 07:55:25;;;;;;;24.20;12.07;;;0.60;99.90;;;;;;4098204;29;20947;-74
2022/11/14 07:57:27;;;;;;;25.40;12.73;;;0.60;99.90;;;;;;4097610;28;20961;-74
2022/11/14 07:59:29;;;;;;;24.97;13.47;;;0.70;99.90;;;;;;4151791;23;20501;-74
2022/11/14 08:01:31;;;;;;;23.03;12.17;;;0.70;99.90;;;;;;4146152;28;20530;-74
2022/11/14 08:03:34;;;;;;;23.83;12.17;;;0.70;99.90;;;;;;4146601;28;20457;-75
2022/11/14 08:05:37;;;;;;;31.63;14.50;;;0.70;99.90;;;;;;4144733;28;21170;-73
2022/11/14 08:07:39;;;;;;;28.83;14.97;;;0.70;99.90;;;;;;4147257;28;21039;-73
2022/11/14 08:09:42;;;;;;;29.33;14.37;;;0.80;99.90;;;;;;4132458;28;20474;-74
2022/11/14 08:11:50;;;;;;;31.17;14.53;;;0.80;99.90;;;;;;4127986;28;20460;-73
2022/11/14 08:13:52;;;;;;;29.90;14.60;;;0.90;99.90;;;;;;4130163;28;20448;-74
2022/11/14 08:15:55;;;;;;;30.47;14.07;;;0.90;99.90;;;;;;4136937;28;20454;-73
2022/11/14 08:17:58;;;;;;;29.63;15.13;;;1.00;99.90;;;;;;4130617;28;20474;-73
2022/11/14 08:20:01;;;;;;;27.83;15.03;;;1.10;99.90;;;;;;4129750;28;20490;-73
2022/11/14 08:22:03;;;;;;;31.47;14.43;;;1.10;99.90;;;;;;4130142;28;20504;-73
2022/11/14 08:24:05;;;;;;;30.13;14.17;;;1.10;99.90;;;;;;4129225;28;21004;-73
2022/11/14 08:26:07;;;;;;;28.73;14.43;;;1.20;99.90;;;;;;4130007;28;20895;-73
2022/11/14 08:28:09;;;;;;;31.23;14.47;;;1.30;99.90;;;;;;4130282;28;20468;-73
2022/11/14 08:30:12;;;;;;;25.57;12.93;;;1.30;99.90;;;;;;4128301;28;20518;-73
2022/11/14 08:32:15;;;;;;;31.10;14.17;;;1.40;99.90;;;;;;4130037;28;20482;-73
2022/11/14 08:34:17;;;;;;;30.57;14.67;;;1.40;99.90;;;;;;4129397;28;20474;-73
2022/11/14 08:36:20;;;;;;;30.57;15.33;;;1.50;99.90;;;;;;4129416;28;20469;-73
2022/11/14 08:38:22;;;;;;;29.07;14.03;;;1.60;99.90;;;;;;4129673;28;20891;-73
2022/11/14 08:40:24;;;;;;;27.33;13.67;;;1.80;99.90;;;;;;4129829;28;20470;-73
2022/11/14 08:42:27;;;;;;;30.13;14.30;;;1.70;99.90;;;;;;4128224;28;21068;-74
2022/11/14 08:44:29;;;;;;;33.67;16.43;;;1.70;99.90;;;;;;4129459;28;20446;-74
2022/11/14 08:46:31;;;;;;;28.50;14.13;;;1.80;99.90;;;;;;4130407;28;21209;-74
2022/11/14 08:48:33;;;;;;;26.63;13.77;;;1.90;99.90;;;;;;4129151;28;20491;-73
2022/11/14 08:50:35;;;;;;;36.90;16.73;;;1.90;99.90;;;;;;4129174;28;20881;-74
2022/11/14 08:52:38;;;;;;;31.70;15.30;;;2.00;99.90;;;;;;4128007;28;20819;-74
2022/11/14 08:54:40;;;;;;;31.73;16.63;;;2.10;99.90;;;;;;4128076;28;20467;-73
2022/11/14 08:56:42;;;;;;;30.63;15.70;;;2.20;99.90;;;;;;4128205;28;20452;-74
2022/11/14 08:58:44;;;;;;;31.00;15.60;;;2.20;99.90;;;;;;4126982;28;20935;-74
2022/11/14 09:00:46;;;;;;;31.30;15.80;;;2.30;99.90;;;;;;4129034;28;20447;-73
2022/11/14 09:02:48;;;;;;;31.77;15.57;;;2.50;99.90;;;;;;4129042;28;20558;-74
2022/11/14 09:04:50;;;;;;;32.10;15.07;;;2.50;99.90;;;;;;4129086;28;20444;-73
2022/11/14 09:06:52;;;;;;;35.43;17.47;;;2.60;99.90;;;;;;4142341;28;20522;-74
2022/11/14 09:08:55;;;;;;;36.43;17.37;;;2.70;99.90;;;;;;4129424;28;20522;-74
2022/11/14 09:11:05;;;;;;;36.37;16.97;;;3.10;99.90;;;;;;4127208;28;20551;-73
2022/11/14 09:13:07;;;;;;;32.47;15.97;;;2.80;99.90;;;;;;4128852;28;20450;-74
2022/11/14 09:15:10;;;;;;;34.37;15.97;;;2.90;99.90;;;;;;4127611;28;20551;-74
2022/11/14 09:17:12;;;;;;;34.57;17.30;;;3.00;99.90;;;;;;4128455;28;20443;-73
2022/11/14 09:19:14;;;;;;;33.50;17.00;;;3.20;99.90;;;;;;4128729;28;21021;-74
2022/11/14 09:21:16;;;;;;;29.20;16.10;;;3.30;99.90;;;;;;4128831;28;20456;-74
2022/11/14 09:23:18;;;;;;;38.53;18.17;;;3.40;99.90;;;;;;4127866;28;20456;-73
2022/11/14 09:25:21;;;;;;;32.07;16.80;;;3.50;99.90;;;;;;4127526;28;20993;-74
2022/11/14 09:27:26;;;;;;;37.47;16.87;;;3.60;99.90;;;;;;4127468;28;20451;-73
2022/11/14 09:29:28;;;;;;;31.50;16.43;;;3.70;99.90;;;;;;4128469;28;20472;-74
2022/11/14 09:31:30;;;;;;;35.60;17.20;;;3.80;99.90;;;;;;4128275;28;20448;-73
2022/11/14 09:33:32;;;;;;;37.60;17.97;;;3.80;99.90;;;;;;4126770;28;20514;-73
2022/11/14 09:35:35;;;;;;;35.80;16.67;;;3.90;99.90;;;;;;4127008;28;20455;-73
2022/11/14 09:37:37;;;;;;;37.20;18.83;;;4.00;99.90;;;;;;4127925;28;20862;-73
2022/11/14 09:39:39;;;;;;;35.20;17.23;;;4.00;99.90;;;;;;4127385;28;20475;-73
2022/11/14 09:41:56;;;;;;;41.53;19.07;;;4.10;99.90;;;;;;4126772;28;20975;-74
2022/11/14 09:44:25;;;;;;;36.73;18.20;;;4.30;99.90;;;;;;4126230;28;20475;-74
2022/11/14 09:46:36;;;;;;;40.50;18.77;;;4.30;99.90;;;;;;4128057;28;20491;-73
2022/11/14 09:48:39;;;;;;;40.50;20.00;;;4.50;99.90;;;;;;4128899;28;20518;-73
2022/11/14 09:50:46;;;;;;;40.23;18.50;;;4.60;99.90;;;;;;4126825;28;20539;-73
2022/11/14 09:52:54;;;;;;;43.10;19.63;;;4.60;99.90;;;;;;4127380;28;20949;-73
2022/11/14 09:55:02;;;;;;;46.33;21.33;;;4.80;99.90;;;;;;4127541;28;20469;-73
2022/11/14 09:57:15;;;;;;;42.83;20.43;;;4.90;99.90;;;;;;4128405;28;20478;-73
2022/11/14 09:59:17;;;;;;;39.77;19.53;;;5.00;99.90;;;;;;4127663;28;20483;-73
2022/11/14 10:01:31;;;;;;;40.00;19.47;;;5.20;99.90;;;;;;4127305;28;20473;-72
2022/11/14 10:03:42;;;;;;;42.73;20.03;;;5.30;99.90;;;;;;4128755;28;21005;-73
2022/11/14 10:06:14;;;;;;;39.33;19.57;;;5.40;99.90;;;;;;4128292;28;20551;-73
2022/11/14 10:08:43;;;;;;;38.47;19.30;;;5.50;99.90;;;;;;4121414;28;21035;-73
2022/11/14 10:10:52;;;;;;;37.37;19.07;;;5.70;99.90;;;;;;4126229;28;20464;-73
2022/11/14 10:13:03;;;;;;;39.80;20.07;;;5.80;99.90;;;;;;4127190;28;20975;-74
2022/11/14 10:15:22;;;;;;;37.97;19.17;;;5.90;99.90;;;;;;4128664;28;20529;-73
2022/11/14 10:17:42;;;;;;;38.57;19.17;;;6.10;99.90;;;;;;4126947;28;20499;-73
2022/11/14 10:19:52;;;;;;;40.90;19.03;;;6.20;99.90;;;;;;4126627;28;21030;-73
2022/11/14 10:22:11;;;;;;;37.67;18.70;;;6.30;99.90;;;;;;4127381;28;20457;-73
2022/11/14 10:24:30;;;;;;;36.87;18.87;;;6.50;99.90;;;;;;4125700;28;20547;-73
2022/11/14 10:26:42;;;;;;;37.27;19.40;;;6.60;99.90;;;;;;4127275;28;20543;-73
2022/11/14 10:29:03;;;;;;;38.07;19.47;;;6.70;99.90;;;;;;4133939;28;20520;-73
2022/11/14 10:31:14;;;;;;;37.53;18.70;;;6.80;99.90;;;;;;4126814;28;20464;-73
2022/11/14 10:33:32;;;;;;;37.53;18.83;;;7.00;99.90;;;;;;4126913;28;20466;-72